Flight Track Log - Related Links

Times and Time Zones

All times are in EDT time to prevent confusion due to time zone crossing. See the AAL2345 flight status page for this flight to view local times or setup timezone preferences in your user account.

Time Position Orientation Groundspeed Altitude Reporting Facility
EDT Latitude Longitude Course Direction KTS MPH feet Rate Location/Type
Mon 06:47:59 PM 41.9167 -87.9167 207° Southwest 173 199 2,600  Level Chicago TRACON
Mon 06:48:59 PM 41.8667 -87.9333 194° South 225 259 4,600 1,983 Climbing Chicago TRACON
Mon 06:49:57 PM 41.8061 -87.9639 201° Southwest 241 277 6,500 2,500 Climbing Chicago Center
Mon 06:50:00 PM 41.7469 -88.1843 201° Southwest  Level Estimated
Mon 06:50:59 PM 41.7322 -88.0069 204° Southwest 290 334 9,600  Level Chicago Center
Mon 06:51:00 PM 41.6685 -88.2764 197° South  Level Estimated
Mon 06:52:00 PM 41.5718 -88.2243 158° South  Level FlightAware
Mon 06:52:01 PM 41.6533 -88.0475 201° Southwest 304 350 12,300  Level Chicago Center
Mon 06:53:00 PM 41.4914 -88.3200 207° Southwest  Level Estimated
Mon 06:53:03 PM 41.5517 -88.1025 202° Southwest 337 388 14,300  Level Chicago Center
Mon 06:54:05 PM 41.4558 -88.1536 202° Southwest 381 438 16,200 2,032 Climbing Chicago Center
Mon 06:55:07 PM 41.3544 -88.2039 200° South 402 463 18,500 1,935 Climbing Chicago Center
Mon 06:56:09 PM 41.2275 -88.2603 198° South 407 468 20,200 1,742 Climbing Chicago Center
Mon 06:57:11 PM 41.1200 -88.3092 199° South 409 471 22,100 1,776 Climbing Chicago Center
Mon 06:58:14 PM 41.0103 -88.3578 198° South 415 478 23,900 1,355 Climbing Chicago Center
Mon 06:59:15 PM 40.8969 -88.4097 199° South 429 494 24,900 1,258 Climbing Chicago Center
Mon 07:00:18 PM 40.7789 -88.4619 199° South 446 513 26,500 1,488 Climbing Chicago Center
Mon 07:01:20 PM 40.6358 -88.5239 198° South 454 522 28,000 726 Climbing Chicago Center
Mon 07:02:22 PM 40.5408 -88.6181 217° Southwest 441 507 28,000 726 Level Chicago Center
Mon 07:03:24 PM 40.4622 -88.7150 223° Southwest 436 502 29,500 968 Climbing Chicago Center
Mon 07:04:26 PM 40.3536 -88.8383 221° Southwest 430 495 30,000 242 Climbing Chicago Center
Mon 07:05:28 PM 40.2636 -88.9447 222° Southwest 434 499 30,000  Level Chicago Center
Mon 07:06:30 PM 40.1731 -89.0500 222° Southwest 434 499 30,000  Level Chicago Center
Mon 07:07:26 PM 40.0992 -89.1328 221° Southwest 432 497 30,000  Level Kansas Center
Mon 07:08:28 PM 39.9925 -89.2581 222° Southwest 430 495 30,000  Level Kansas Center
Mon 07:09:30 PM 39.9025 -89.3603 221° Southwest 428 493 30,000  Level Kansas Center
Mon 07:10:32 PM 39.8122 -89.4639 221° Southwest 430 495 30,000  Level Kansas Center
Mon 07:11:34 PM 39.7208 -89.5669 221° Southwest 432 497 30,000  Level Kansas Center
Mon 07:12:36 PM 39.6350 -89.6669 222° Southwest 434 499 30,000 194 Level Kansas Center
Mon 07:13:38 PM 39.5275 -89.7894 221° Southwest 431 496 30,400 677 Climbing Kansas Center
Mon 07:14:40 PM 39.4369 -89.8911 221° Southwest 431 496 31,400 774 Climbing Kansas Center
Mon 07:15:42 PM 39.3475 -89.9925 221° Southwest 430 495 32,000 290 Climbing Kansas Center
Mon 07:16:44 PM 39.2589 -90.0933 221° Southwest 427 491 32,000  Level Kansas Center
Mon 07:17:46 PM 39.1689 -90.1936 221° Southwest 429 494 32,000  Level Kansas Center
Mon 07:18:48 PM 39.0797 -90.2947 221° Southwest 429 494 32,000  Level Kansas Center
Mon 07:19:50 PM 38.9717 -90.4147 221° Southwest 431 496 32,000  Level Kansas Center
Mon 07:20:52 PM 38.8836 -90.5111 220° Southwest 425 489 32,000  Level Kansas Center
Mon 07:21:54 PM 38.7928 -90.6117 221° Southwest 426 490 32,000  Level Kansas Center
Mon 07:22:56 PM 38.7031 -90.7119 221° Southwest 439 505 32,000  Level Kansas Center
Mon 07:23:58 PM 38.5953 -90.8261 220° Southwest 427 491 32,000  Level Kansas Center
Mon 07:25:00 PM 38.5061 -90.9247 221° Southwest 427 491 32,000  Level Kansas Center
Mon 07:26:02 PM 38.4169 -91.0203 220° Southwest 423 487 32,000  Level Kansas Center
Mon 07:27:04 PM 38.3286 -91.1147 220° Southwest 419 482 32,000  Level Kansas Center
Mon 07:28:06 PM 38.2419 -91.2083 220° Southwest 412 474 32,000  Level Kansas Center
Mon 07:29:08 PM 38.1464 -91.3106 220° Southwest 411 473 32,000  Level Kansas Center
Mon 07:30:10 PM 38.0586 -91.4042 220° Southwest 410 472 32,000  Level Kansas Center
Mon 07:31:12 PM 37.9697 -91.5003 220° Southwest 414 476 32,000  Level Kansas Center
Mon 07:32:14 PM 37.8625 -91.6139 220° Southwest 415 478 32,000  Level Kansas Center
Mon 07:33:16 PM 37.7742 -91.7094 221° Southwest 416 479 32,000  Level Kansas Center
Mon 07:34:18 PM 37.6844 -91.8050 220° Southwest 417 480 32,000  Level Kansas Center
Mon 07:35:20 PM 37.5928 -91.9014 220° Southwest 421 484 32,000  Level Kansas Center
Mon 07:36:22 PM 37.5047 -91.9950 220° Southwest 415 478 32,000  Level Kansas Center
Mon 07:37:24 PM 37.4183 -92.0906 221° Southwest 410 472 32,000  Level Kansas Center
Mon 07:38:26 PM 37.3303 -92.1894 222° Southwest 417 480 32,000  Level Kansas Center
Mon 07:39:28 PM 37.2456 -92.2844 222° Southwest 411 473 32,000  Level Kansas Center
Mon 07:40:30 PM 37.1600 -92.3786 221° Southwest 407 468 32,000  Level Kansas Center
Mon 07:41:32 PM 37.0578 -92.4900 221° Southwest 405 466 32,000  Level Kansas Center
Mon 07:42:34 PM 36.9725 -92.5833 221° Southwest 404 465 32,000  Level Kansas Center
Mon 07:43:36 PM 36.8886 -92.6747 221° Southwest 400 460 32,000  Level Kansas Center
Mon 07:44:38 PM 36.8033 -92.7658 221° Southwest 400 460 32,000 -145 Level Kansas Center
Mon 07:45:40 PM 36.7189 -92.8569 221° Southwest 401 461 31,700 -677 Descending Kansas Center
Mon 07:46:42 PM 36.6350 -92.9486 221° Southwest 400 460 30,600 -823 Descending Kansas Center
Mon 07:47:44 PM 36.5444 -93.0431 220° Southwest 406 467 30,000 -823 Descending Kansas Center
Mon 07:48:46 PM 36.4608 -93.1358 222° Southwest 404 465 28,900 -968 Descending Kansas Center
Mon 07:49:48 PM 36.3786 -93.2244 221° Southwest 396 456 28,000 -509 Descending Kansas Center
Mon 07:50:32 PM 36.3072 -93.3031 222° Southwest 406 467 28,000  Level Memphis Center
Mon 07:51:32 PM 36.2239 -93.3928 221° Southwest 401 461 28,000  Level Memphis Center
Mon 07:52:32 PM 36.1406 -93.4797 220° Southwest 401 461 28,000  Level Memphis Center
Mon 07:53:32 PM 36.0567 -93.5714 221° Southwest 401 461 28,000  Level Memphis Center
Mon 07:54:32 PM 35.9731 -93.6606 221° Southwest 396 456 28,000  Level Memphis Center
Mon 07:55:32 PM 35.8894 -93.7494 221° Southwest 396 456 28,000  Level Memphis Center
Mon 07:56:32 PM 35.8036 -93.8381 220° Southwest 396 456 28,000  Level Memphis Center
Mon 07:57:32 PM 35.7197 -93.9267 221° Southwest 396 456 28,000  Level Memphis Center
Mon 07:58:32 PM 35.6339 -94.0147 220° Southwest 401 461 28,000  Level Memphis Center
Mon 07:59:32 PM 35.5478 -94.1028 220° Southwest 401 461 28,000  Level Memphis Center
Mon 08:00:32 PM 35.4636 -94.1908 220° Southwest 401 461 28,000  Level Memphis Center
Mon 08:01:32 PM 35.3794 -94.2811 221° Southwest 401 461 28,000  Level Memphis Center
Mon 08:02:32 PM 35.2911 -94.3739 221° Southwest 401 461 28,000  Level Memphis Center
Mon 08:04:05 PM 35.1644 -94.5211 224° Southwest 415 478 28,000  Level Fort Center
Mon 08:05:05 PM 35.0767 -94.6128 221° Southwest 415 478 28,000  Level Fort Center
Mon 08:06:05 PM 34.9933 -94.7042 222° Southwest 415 478 28,000  Level Fort Center
Mon 08:07:05 PM 34.9056 -94.7981 221° Southwest 415 478 28,000  Level Fort Center
Mon 08:08:05 PM 34.8117 -94.8997 222° Southwest 415 478 28,000  Level Fort Center
Mon 08:09:05 PM 34.7258 -94.9931 222° Southwest 421 484 28,000 -500 Level Fort Center
Mon 08:10:05 PM 34.6378 -95.0839 220° Southwest 415 478 27,000 -1,000 Descending Fort Center
Mon 08:11:05 PM 34.5539 -95.1744 222° Southwest 415 478 26,000 -1,000 Descending Fort Center
Mon 08:12:05 PM 34.4700 -95.2622 221° Southwest 409 471 25,000 -1,000 Descending Fort Center
Mon 08:13:05 PM 34.3839 -95.3525 221° Southwest 409 471 24,000 -500 Descending Fort Center
Mon 08:14:05 PM 34.3039 -95.4400 222° Southwest 409 471 24,000  Level Fort Center
Mon 08:15:05 PM 34.2197 -95.5272 221° Southwest 409 471 24,000 -50 Level Fort Center
Mon 08:16:05 PM 34.1356 -95.6119 220° Southwest 404 465 23,900 -750 Descending Fort Center
Mon 08:17:05 PM 34.0511 -95.6989 220° Southwest 404 465 22,500 -1,400 Descending Fort Center
Mon 08:18:05 PM 33.9708 -95.7806 220° Southwest 392 451 21,100 -1,500 Descending Fort Center
Mon 08:19:05 PM 33.8925 -95.8672 223° Southwest 392 451 19,500 -1,600 Descending Fort Center
Mon 08:20:05 PM 33.8142 -95.9461 220° Southwest 392 451 17,900 -1,600 Descending Fort Center
Mon 08:21:05 PM 33.7275 -96.0397 222° Southwest 393 452 16,300 -1,450 Descending Fort Center
Mon 08:22:05 PM 33.6553 -96.1133 220° Southwest 387 445 15,000 -1,400 Descending Fort Center
Mon 08:23:05 PM 33.5728 -96.1994 221° Southwest 373 429 13,500 -1,400 Descending Fort Center
Mon 08:24:05 PM 33.5067 -96.2725 223° Southwest 367 422 12,200 -1,200 Descending Fort Center
Mon 08:25:05 PM 33.4406 -96.3531 225° Southwest 329 379 11,100 -650 Descending Fort Center
Mon 08:26:05 PM 33.3889 -96.4133 224° Southwest 298 343 10,900 -750 Descending Fort Center
Mon 08:27:05 PM 33.3267 -96.4886 225° Southwest 292 336 9,600 -1,200 Descending Fort Center
Mon 08:28:05 PM 33.2878 -96.5611 237° Southwest 292 336 8,500 -1,100 Descending Fort Center
Mon 08:29:05 PM 33.2589 -96.6458 248° West 287 330 7,400 -1,150 Descending Fort Center
Mon 08:30:05 PM 33.2283 -96.7428 249° West 287 330 6,200 -750 Descending Fort Center
Mon 08:31:05 PM 33.1847 -96.8053 230° Southwest 277 319 5,900 -850 Descending Fort Center
Mon 08:32:05 PM 33.1350 -96.8825 232° Southwest 277 319 4,500 -1,096 Descending Fort Center
Mon 08:32:49 PM 33.1000 -96.9333 231° Southwest 247 284 4,000 -923 Descending Dallas TRACON
Mon 08:33:49 PM 33.0667 -96.9833 232° Southwest 216 249 2,900 -1,100 Descending Dallas TRACON

Login

Don't have an account? Register now (free) for customized features, flight alerts, and more!